createdAt,value
2019-02-05T00:02:22.307Z,18.33
2019-02-05T00:07:18.023Z,16.83
2019-02-05T00:12:14.525Z,18.00
2019-02-05T00:17:10.224Z,15.13
2019-02-05T00:22:06.030Z,19.07
2019-02-05T00:27:01.739Z,21.53
2019-02-05T00:31:57.443Z,21.57
2019-02-05T00:36:53.155Z,18.27
2019-02-05T00:41:48.876Z,17.67
2019-02-05T00:46:44.669Z,16.57
2019-02-05T00:51:40.388Z,17.37
2019-02-05T00:56:36.107Z,17.33
2019-02-05T01:01:31.986Z,20.10
2019-02-05T01:06:27.703Z,17.87
2019-02-05T01:11:23.483Z,16.80
2019-02-05T01:16:19.191Z,17.27
2019-02-05T01:21:14.935Z,17.13
2019-02-05T01:26:10.677Z,18.17
2019-02-05T01:31:06.615Z,16.87
2019-02-05T01:36:02.613Z,19.63
2019-02-05T01:40:58.342Z,20.77
2019-02-05T01:45:54.155Z,21.90
2019-02-05T01:50:49.882Z,23.10
2019-02-05T01:55:45.587Z,25.83
2019-02-05T02:00:41.310Z,24.97
2019-02-05T02:05:37.208Z,25.77
2019-02-05T02:10:32.916Z,26.00
2019-02-05T02:15:28.737Z,27.23
2019-02-05T02:20:24.660Z,24.97
2019-02-05T02:25:21.079Z,26.93
2019-02-05T02:30:21.742Z,25.73
2019-02-05T02:35:17.565Z,24.33
2019-02-05T02:40:13.259Z,28.67
2019-02-05T02:45:12.493Z,27.33
2019-02-05T02:50:09.553Z,26.23
2019-02-05T02:55:05.793Z,29.10
2019-02-05T03:00:03.483Z,26.23
2019-02-05T03:04:59.399Z,27.03
2019-02-05T03:09:55.330Z,28.67
2019-02-05T03:14:51.418Z,36.30
2019-02-05T03:19:47.321Z,31.47
2019-02-05T03:24:43.139Z,34.20
2019-02-05T03:29:38.943Z,34.67
2019-02-05T03:34:34.931Z,31.87
2019-02-05T03:39:30.856Z,29.67
2019-02-05T03:44:26.703Z,32.83
2019-02-05T03:49:22.626Z,30.17
2019-02-05T03:54:29.521Z,34.43
2019-02-05T03:59:43.788Z,33.63
2019-02-05T04:04:53.877Z,29.93
2019-02-05T04:09:51.605Z,32.50
2019-02-05T04:15:04.221Z,34.23
2019-02-05T04:20:01.817Z,32.60
2019-02-05T04:25:16.263Z,35.27
2019-02-05T04:30:31.881Z,41.77
2019-02-05T04:35:47.320Z,33.23
2019-02-05T04:40:57.456Z,33.27
2019-02-05T04:45:55.416Z,38.20
2019-02-05T04:50:56.147Z,35.33
2019-02-05T04:55:59.920Z,36.80
2019-02-05T05:00:57.654Z,33.27
2019-02-05T05:05:55.353Z,37.03
2019-02-05T05:10:51.159Z,35.97
2019-02-05T05:15:46.859Z,35.80
2019-02-05T05:20:43.170Z,37.07
2019-02-05T05:25:39.222Z,34.83
2019-02-05T05:30:35.571Z,36.87
2019-02-05T05:35:41.699Z,36.80
2019-02-05T05:40:28.986Z,39.33
2019-02-05T05:45:24.909Z,35.83
2019-02-05T05:50:21.374Z,36.33
2019-02-05T05:55:17.659Z,38.17
2019-02-05T06:00:15.018Z,38.23
2019-02-05T06:05:11.840Z,45.13
2019-02-05T06:10:12.531Z,41.03
2019-02-05T06:15:09.577Z,36.30
2019-02-05T06:20:07.248Z,37.23
2019-02-05T06:25:03.961Z,33.87
2019-02-05T06:29:59.976Z,39.47
2019-02-05T06:34:55.669Z,37.27
2019-02-05T06:39:51.421Z,35.37
2019-02-05T06:44:47.197Z,35.30
2019-02-05T06:49:43.023Z,41.07
2019-02-05T06:54:38.835Z,38.43
2019-02-05T06:59:34.564Z,38.90
2019-02-05T07:04:30.477Z,37.33
2019-02-05T07:09:26.251Z,33.87
2019-02-05T07:14:22.077Z,40.90
2019-02-05T07:19:17.796Z,37.33
2019-02-05T07:24:13.813Z,37.27
2019-02-05T07:29:09.876Z,36.57
2019-02-05T07:34:05.598Z,36.23
2019-02-05T07:39:01.405Z,42.60
2019-02-05T07:43:57.427Z,36.33
2019-02-05T07:48:53.257Z,37.77
2019-02-05T07:53:49.060Z,38.57
2019-02-05T07:58:44.893Z,35.30
2019-02-05T08:03:40.997Z,32.80
2019-02-05T08:08:37.081Z,34.40
2019-02-05T08:13:33.143Z,33.77
2019-02-05T08:18:29.272Z,30.90
2019-02-05T08:23:25.115Z,30.93
2019-02-05T08:28:21.048Z,30.03
2019-02-05T08:33:16.996Z,30.03
2019-02-05T08:38:13.012Z,29.47
2019-02-05T08:43:08.927Z,27.10
2019-02-05T08:48:05.948Z,26.57
2019-02-05T08:53:01.781Z,24.27
2019-02-05T08:58:01.690Z,25.00
2019-02-05T09:02:57.778Z,28.77
2019-02-05T09:07:53.843Z,27.10
2019-02-05T09:12:49.753Z,24.10
2019-02-05T09:17:45.665Z,21.10
2019-02-05T09:22:41.478Z,26.63
2019-02-05T09:27:37.289Z,26.23
2019-02-05T09:32:35.097Z,27.20
2019-02-05T09:37:30.712Z,25.40
2019-02-05T09:42:26.850Z,23.57
2019-02-05T09:47:22.763Z,24.33
2019-02-05T09:52:18.493Z,24.07
2019-02-05T09:57:14.307Z,23.80
2019-02-05T10:02:10.183Z,25.87
2019-02-05T10:07:06.021Z,26.03
2019-02-05T10:12:01.929Z,25.43
2019-02-05T10:16:58.141Z,27.03
2019-02-05T10:21:53.949Z,24.20
2019-02-05T10:26:49.767Z,22.13
2019-02-05T10:31:45.687Z,24.27
2019-02-05T10:36:41.809Z,24.07
2019-02-05T10:41:37.654Z,25.07
2019-02-05T10:46:33.689Z,27.97
2019-02-05T10:51:29.795Z,26.27
2019-02-05T10:56:25.599Z,26.50
2019-02-05T11:01:21.420Z,22.73
2019-02-05T11:06:19.971Z,23.70
2019-02-05T11:11:14.841Z,25.30
2019-02-05T11:16:10.756Z,25.13
2019-02-05T11:21:06.577Z,23.93
2019-02-05T11:26:02.491Z,24.63
2019-02-05T11:30:58.317Z,26.83
2019-02-05T11:35:54.106Z,23.80
2019-02-05T11:40:50.192Z,24.43
2019-02-05T11:45:46.018Z,23.00
2019-02-05T11:50:42.027Z,23.03
2019-02-05T11:55:37.925Z,22.43
2019-02-05T12:00:35.922Z,23.47
2019-02-05T12:05:31.710Z,23.33
2019-02-05T12:10:27.730Z,24.30
2019-02-05T12:15:23.641Z,22.73
2019-02-05T12:20:19.570Z,19.80
2019-02-05T12:25:16.389Z,23.90
2019-02-05T12:30:26.091Z,22.90
2019-02-05T12:35:21.859Z,24.90
2019-02-05T12:40:17.790Z,25.03
2019-02-05T12:45:21.039Z,25.57
2019-02-05T12:50:17.837Z,23.70
2019-02-05T12:55:16.301Z,24.97
2019-02-05T13:00:14.734Z,25.73
2019-02-05T13:05:10.537Z,24.07
2019-02-05T13:10:08.449Z,27.40
2019-02-05T13:15:06.055Z,26.30
2019-02-05T13:20:03.956Z,30.63
2019-02-05T13:24:59.912Z,26.50
2019-02-05T13:29:55.716Z,29.37
2019-02-05T13:34:51.427Z,26.50
2019-02-05T13:39:47.163Z,26.03
2019-02-05T13:44:42.875Z,29.40
2019-02-05T13:49:38.850Z,26.93
2019-02-05T13:54:34.667Z,25.70
2019-02-05T13:59:30.367Z,28.37
2019-02-05T14:04:26.278Z,27.67
2019-02-05T14:09:22.009Z,26.97
2019-02-05T14:14:17.920Z,26.07
2019-02-05T14:19:13.718Z,28.33
2019-02-05T14:24:09.428Z,24.93
2019-02-05T14:29:05.421Z,25.30
2019-02-05T14:34:01.513Z,25.67
2019-02-05T14:38:57.513Z,27.23
2019-02-05T14:43:53.284Z,28.37
2019-02-05T14:48:49.093Z,27.27
2019-02-05T14:53:44.807Z,28.33
2019-02-05T14:58:40.523Z,27.03
2019-02-05T15:03:36.294Z,29.23
2019-02-05T15:08:32.011Z,27.50
2019-02-05T15:13:27.835Z,28.70
2019-02-05T15:18:23.899Z,30.30
2019-02-05T15:23:19.915Z,29.43
2019-02-05T15:28:15.909Z,27.87
2019-02-05T15:33:29.035Z,32.50
2019-02-05T15:38:24.948Z,32.10
2019-02-05T15:43:20.765Z,31.80
2019-02-05T15:48:16.497Z,27.00
2019-02-05T15:53:12.313Z,29.10
2019-02-05T15:58:08.521Z,30.30
2019-02-05T16:03:05.261Z,30.73
2019-02-05T16:08:01.039Z,30.17
2019-02-05T16:12:56.853Z,28.37
2019-02-05T16:17:52.689Z,29.20
2019-02-05T16:22:49.055Z,31.47
2019-02-05T16:27:45.013Z,34.57
2019-02-05T16:32:41.111Z,34.17
2019-02-05T16:37:37.069Z,34.77
2019-02-05T16:42:33.031Z,32.33
2019-02-05T16:47:28.885Z,38.53
2019-02-05T16:52:24.721Z,37.53
2019-02-05T16:57:20.420Z,33.30
2019-02-05T17:02:16.207Z,32.23
2019-02-05T17:07:12.251Z,35.40
2019-02-05T17:12:07.943Z,36.07
2019-02-05T17:17:03.773Z,37.07
2019-02-05T17:21:59.563Z,38.60
2019-02-05T17:26:55.378Z,35.60
2019-02-05T17:31:51.103Z,41.10
2019-02-05T17:36:47.057Z,38.70
2019-02-05T17:41:42.773Z,38.27
2019-02-05T17:46:38.587Z,37.20
2019-02-05T17:51:34.567Z,38.37
2019-02-05T17:56:30.305Z,36.83
2019-02-05T18:01:26.393Z,37.30
2019-02-05T18:06:22.442Z,37.50
2019-02-05T18:11:18.167Z,45.77
2019-02-05T18:16:13.967Z,39.93
2019-02-05T18:21:10.033Z,42.97
2019-02-05T18:26:05.860Z,39.83
2019-02-05T18:31:02.114Z,39.57
2019-02-05T18:35:58.092Z,38.43
2019-02-05T18:40:54.020Z,38.20
2019-02-05T18:45:49.883Z,42.20
2019-02-05T18:50:45.708Z,38.70
2019-02-05T18:55:42.225Z,47.80
2019-02-05T19:00:39.976Z,37.80
2019-02-05T19:05:36.095Z,38.97
2019-02-05T19:10:32.137Z,42.83
2019-02-05T19:15:28.990Z,41.63
2019-02-05T19:20:25.701Z,42.23
2019-02-05T19:25:32.966Z,41.23
2019-02-05T19:30:30.631Z,43.57
2019-02-05T19:35:26.560Z,44.50
2019-02-05T19:40:22.255Z,40.67
2019-02-05T19:45:29.062Z,40.20
2019-02-05T19:50:25.182Z,40.80
2019-02-05T19:55:21.156Z,39.60
2019-02-05T20:00:17.782Z,39.83
2019-02-05T20:05:14.201Z,44.60
2019-02-05T20:10:10.938Z,44.27
2019-02-05T20:15:08.364Z,43.23
2019-02-05T20:20:06.101Z,40.40
2019-02-05T20:25:02.478Z,44.20
2019-02-05T20:29:58.596Z,46.93
2019-02-05T20:34:54.266Z,43.87
2019-02-05T20:39:49.997Z,39.33
2019-02-05T20:44:45.750Z,41.37
2019-02-05T20:49:41.482Z,41.00
2019-02-05T20:54:37.266Z,40.00
2019-02-05T20:59:32.992Z,43.97
2019-02-05T21:04:28.708Z,40.67
2019-02-05T21:09:24.746Z,39.10
2019-02-05T21:14:20.556Z,43.57
2019-02-05T21:19:16.344Z,41.30
2019-02-05T21:24:12.093Z,42.27
2019-02-05T21:29:07.893Z,43.30
2019-02-05T21:34:14.829Z,43.60
2019-02-05T21:39:01.433Z,43.07
2019-02-05T21:43:57.353Z,41.80
2019-02-05T21:48:53.077Z,38.90
2019-02-05T21:53:48.881Z,39.97
2019-02-05T21:58:44.902Z,41.77
2019-02-05T22:03:40.662Z,41.00
2019-02-05T22:08:36.501Z,40.03
2019-02-05T22:13:32.545Z,43.73
2019-02-05T22:18:28.338Z,43.30
2019-02-05T22:23:24.056Z,45.83
2019-02-05T22:28:20.608Z,40.60
2019-02-05T22:33:16.690Z,46.77
2019-02-05T22:38:12.527Z,42.63
2019-02-05T22:43:08.374Z,49.07
2019-02-05T22:48:04.679Z,46.43
2019-02-05T22:53:01.795Z,47.70
2019-02-05T22:57:57.594Z,51.60
2019-02-05T23:02:53.403Z,48.20
2019-02-05T23:07:49.092Z,43.53
2019-02-05T23:12:45.190Z,50.27
2019-02-05T23:17:41.049Z,51.67
2019-02-05T23:22:36.955Z,44.80
2019-02-05T23:27:33.057Z,53.07
2019-02-05T23:32:28.779Z,47.23
2019-02-05T23:37:24.497Z,46.67
2019-02-05T23:42:20.308Z,46.10
2019-02-05T23:47:16.165Z,49.87
2019-02-05T23:52:11.862Z,48.67
2019-02-05T23:57:09.871Z,48.00
